NOZ24Q ENGM-ENEV
Flight info
| Callsign | NOZ24Q |
|---|---|
| Flight time | N/A |
| Altitude | 35000 |
| Route | RIBBE DCT GIGNI DCT SOMUB DCT GUBAV DCT PENNO |
| Aircraft | B38M/M-SDE1FGHILORVWXY/HB1 |
Departure
| Time | N/A |
|---|---|
| Airport | Oslo-Gardermoen International Airport (ENGM) |
Arrival
| Time | 2026-04-20 18:18 |
|---|---|
| Airport | Harstad/Narvik Airport (ENEV) |
| Time | Latitude | Longitude | Altitude | Speed | Heading |
|---|---|---|---|---|---|
| 2026-04-20 17:38 | 65.43297 | 13.61871 | 35458 ft | 436 kts | 21° |
| 2026-04-20 17:39 | 65.48945 | 13.67218 | 35458 ft | 436 kts | 22° |
| 2026-04-20 17:39 | 65.54593 | 13.72588 | 35459 ft | 436 kts | 22° |
| 2026-04-20 17:40 | 65.60240 | 13.77978 | 35459 ft | 436 kts | 22° |
| 2026-04-20 17:40 | 65.65887 | 13.83392 | 35449 ft | 436 kts | 21° |
| 2026-04-20 17:41 | 65.71528 | 13.88828 | 35450 ft | 436 kts | 21° |
| 2026-04-20 17:41 | 65.77172 | 13.94253 | 35457 ft | 436 kts | 20° |
| 2026-04-20 17:42 | 65.82858 | 13.99408 | 35453 ft | 436 kts | 20° |
| 2026-04-20 17:42 | 65.88504 | 14.04567 | 35456 ft | 436 kts | 20° |
| 2026-04-20 17:43 | 65.94188 | 14.09788 | 35455 ft | 436 kts | 19° |
| 2026-04-20 17:43 | 65.99867 | 14.15029 | 35460 ft | 436 kts | 20° |
| 2026-04-20 17:44 | 66.05542 | 14.20290 | 35454 ft | 436 kts | 20° |
| 2026-04-20 17:44 | 66.11214 | 14.25574 | 35478 ft | 436 kts | 20° |
| 2026-04-20 17:45 | 66.16882 | 14.30881 | 35473 ft | 436 kts | 20° |
| 2026-04-20 17:45 | 66.22548 | 14.36212 | 35480 ft | 436 kts | 19° |
| 2026-04-20 17:46 | 66.28208 | 14.41562 | 35483 ft | 434 kts | 20° |
| 2026-04-20 17:46 | 66.33855 | 14.46926 | 35482 ft | 434 kts | 20° |
| 2026-04-20 17:47 | 66.39498 | 14.52312 | 35480 ft | 434 kts | 20° |
| 2026-04-20 17:47 | 66.45137 | 14.57720 | 35482 ft | 434 kts | 20° |
| 2026-04-20 17:48 | 66.50778 | 14.63155 | 35475 ft | 434 kts | 20° |
| 2026-04-20 17:48 | 66.56410 | 14.68610 | 35496 ft | 434 kts | 20° |
| 2026-04-20 17:49 | 66.62044 | 14.74092 | 35492 ft | 434 kts | 20° |
| 2026-04-20 17:49 | 66.67676 | 14.79600 | 35480 ft | 434 kts | 20° |
| 2026-04-20 17:50 | 66.73309 | 14.85135 | 35473 ft | 434 kts | 20° |
| 2026-04-20 17:50 | 66.78933 | 14.90689 | 35475 ft | 434 kts | 20° |
| 2026-04-20 17:51 | 66.84561 | 14.96274 | 35483 ft | 434 kts | 20° |
| 2026-04-20 17:51 | 66.90186 | 15.01884 | 35472 ft | 435 kts | 20° |
| 2026-04-20 17:52 | 66.95818 | 15.07529 | 35473 ft | 435 kts | 20° |
| 2026-04-20 17:52 | 67.01431 | 15.13184 | 35441 ft | 427 kts | 20° |
| 2026-04-20 17:52 | 67.04157 | 15.15939 | 35181 ft | 418 kts | 20° |
| 2026-04-20 17:53 | 67.06852 | 15.18670 | 34700 ft | 416 kts | 20° |
| 2026-04-20 17:53 | 67.09540 | 15.21400 | 34112 ft | 415 kts | 20° |
| 2026-04-20 17:53 | 67.12226 | 15.24135 | 33514 ft | 415 kts | 19° |
| 2026-04-20 17:53 | 67.14898 | 15.26863 | 33024 ft | 412 kts | 19° |
| 2026-04-20 17:54 | 67.17548 | 15.29574 | 32576 ft | 408 kts | 19° |
| 2026-04-20 17:54 | 67.20172 | 15.32266 | 32109 ft | 405 kts | 19° |
| 2026-04-20 17:54 | 67.22779 | 15.34945 | 31632 ft | 402 kts | 19° |
| 2026-04-20 17:54 | 67.25370 | 15.37614 | 31177 ft | 400 kts | 19° |
| 2026-04-20 17:55 | 67.27945 | 15.40275 | 30723 ft | 397 kts | 19° |
| 2026-04-20 17:55 | 67.30506 | 15.42926 | 30227 ft | 395 kts | 19° |
| 2026-04-20 17:55 | 67.33050 | 15.45566 | 29733 ft | 392 kts | 19° |
| 2026-04-20 17:55 | 67.35571 | 15.48188 | 29295 ft | 388 kts | 19° |
| 2026-04-20 17:56 | 67.38062 | 15.50785 | 28884 ft | 384 kts | 19° |
| 2026-04-20 17:56 | 67.40528 | 15.53360 | 28461 ft | 380 kts | 19° |
| 2026-04-20 17:56 | 67.42972 | 15.55920 | 28060 ft | 377 kts | 19° |
| 2026-04-20 17:56 | 67.45394 | 15.58461 | 27677 ft | 374 kts | 19° |
| 2026-04-20 17:57 | 67.47803 | 15.60994 | 27250 ft | 372 kts | 19° |
| 2026-04-20 17:57 | 67.50199 | 15.63519 | 26835 ft | 370 kts | 19° |
| 2026-04-20 17:57 | 67.52546 | 15.65998 | 26459 ft | 367 kts | 19° |
| 2026-04-20 17:57 | 67.54907 | 15.68497 | 26077 ft | 365 kts | 19° |
| 2026-04-20 17:58 | 67.57258 | 15.70991 | 25679 ft | 363 kts | 19° |
| 2026-04-20 17:58 | 67.59591 | 15.73471 | 25308 ft | 361 kts | 19° |
| 2026-04-20 17:58 | 67.61918 | 15.75949 | 24930 ft | 360 kts | 19° |
| 2026-04-20 17:58 | 67.64231 | 15.78418 | 24551 ft | 359 kts | 19° |
| 2026-04-20 17:59 | 67.66542 | 15.80891 | 24181 ft | 358 kts | 19° |
| 2026-04-20 17:59 | 67.68841 | 15.83356 | 23753 ft | 357 kts | 18° |
| 2026-04-20 17:59 | 67.71130 | 15.85816 | 23345 ft | 354 kts | 18° |
| 2026-04-20 17:59 | 67.73405 | 15.88264 | 22954 ft | 351 kts | 18° |
| 2026-04-20 18:00 | 67.75651 | 15.90684 | 22624 ft | 347 kts | 19° |
| 2026-04-20 18:00 | 67.77883 | 15.93094 | 22349 ft | 350 kts | 19° |
| 2026-04-20 18:00 | 67.80187 | 15.95588 | 21978 ft | 366 kts | 19° |
| 2026-04-20 18:00 | 67.82572 | 15.98175 | 21557 ft | 372 kts | 19° |
| 2026-04-20 18:01 | 67.84980 | 16.00792 | 21133 ft | 375 kts | 19° |
| 2026-04-20 18:01 | 67.87392 | 16.03419 | 20697 ft | 375 kts | 19° |
| 2026-04-20 18:01 | 67.89796 | 16.06043 | 20261 ft | 372 kts | 19° |
| 2026-04-20 18:01 | 67.92183 | 16.08655 | 19832 ft | 370 kts | 19° |
| 2026-04-20 18:02 | 67.94612 | 16.10747 | 19305 ft | 364 kts | 5° |
| 2026-04-20 18:02 | 67.97093 | 16.11672 | 18968 ft | 359 kts | 7° |
| 2026-04-20 18:02 | 67.99538 | 16.12885 | 18559 ft | 356 kts | 7° |
| 2026-04-20 18:02 | 68.01929 | 16.14088 | 18125 ft | 353 kts | 7° |
| 2026-04-20 18:03 | 68.04328 | 16.15305 | 17715 ft | 349 kts | 7° |
| 2026-04-20 18:03 | 68.06704 | 16.16512 | 17309 ft | 346 kts | 7° |
| 2026-04-20 18:03 | 68.09056 | 16.17712 | 16918 ft | 342 kts | 7° |
| 2026-04-20 18:03 | 68.11384 | 16.18902 | 16520 ft | 339 kts | 6° |
| 2026-04-20 18:04 | 68.13692 | 16.20084 | 16127 ft | 336 kts | 6° |
| 2026-04-20 18:04 | 68.15980 | 16.21259 | 15740 ft | 333 kts | 6° |
| 2026-04-20 18:04 | 68.18249 | 16.22426 | 15357 ft | 331 kts | 6° |
| 2026-04-20 18:04 | 68.20499 | 16.23585 | 14974 ft | 328 kts | 6° |
| 2026-04-20 18:05 | 68.24952 | 16.25887 | 14211 ft | 324 kts | 6° |
| 2026-04-20 18:05 | 68.27156 | 16.27031 | 13797 ft | 322 kts | 6° |
| 2026-04-20 18:05 | 68.29347 | 16.28171 | 13390 ft | 319 kts | 6° |
| 2026-04-20 18:06 | 68.31516 | 16.29299 | 13035 ft | 316 kts | 6° |
| 2026-04-20 18:06 | 68.33690 | 16.30432 | 12650 ft | 320 kts | 7° |
| 2026-04-20 18:06 | 68.35890 | 16.31582 | 12270 ft | 323 kts | 7° |
| 2026-04-20 18:06 | 68.38098 | 16.32736 | 11904 ft | 322 kts | 7° |
| 2026-04-20 18:07 | 68.40294 | 16.33791 | 11520 ft | 318 kts | 1° |
| 2026-04-20 18:07 | 68.42476 | 16.33825 | 11189 ft | 310 kts | 355° |
| 2026-04-20 18:07 | 68.44594 | 16.33742 | 11055 ft | 299 kts | 356° |
| 2026-04-20 18:07 | 68.46633 | 16.33672 | 10931 ft | 287 kts | 356° |
| 2026-04-20 18:08 | 68.48595 | 16.33624 | 10790 ft | 276 kts | 356° |
| 2026-04-20 18:08 | 68.50487 | 16.33564 | 10657 ft | 265 kts | 355° |
| 2026-04-20 18:08 | 68.52295 | 16.33508 | 10588 ft | 255 kts | 355° |
| 2026-04-20 18:08 | 68.54028 | 16.33456 | 10412 ft | 252 kts | 355° |
| 2026-04-20 18:09 | 68.55811 | 16.33403 | 10107 ft | 259 kts | 355° |
| 2026-04-20 18:09 | 68.57634 | 16.33351 | 9771 ft | 263 kts | 355° |
| 2026-04-20 18:09 | 68.59471 | 16.33299 | 9501 ft | 265 kts | 355° |
| 2026-04-20 18:09 | 68.61321 | 16.33245 | 9172 ft | 266 kts | 355° |
| 2026-04-20 18:10 | 68.63166 | 16.33193 | 8892 ft | 264 kts | 355° |
| 2026-04-20 18:10 | 68.64996 | 16.33139 | 8579 ft | 261 kts | 355° |
| 2026-04-20 18:10 | 68.66801 | 16.33085 | 8304 ft | 258 kts | 355° |
| 2026-04-20 18:10 | 68.68583 | 16.33035 | 8087 ft | 253 kts | 355° |
| 2026-04-20 18:11 | 68.70318 | 16.32987 | 7964 ft | 245 kts | 355° |
| 2026-04-20 18:11 | 68.71994 | 16.33815 | 7707 ft | 251 kts | 20° |
| 2026-04-20 18:11 | 68.73378 | 16.36845 | 7359 ft | 262 kts | 50° |
| 2026-04-20 18:11 | 68.74098 | 16.41443 | 7085 ft | 265 kts | 79° |
| 2026-04-20 18:12 | 68.74225 | 16.46480 | 6836 ft | 262 kts | 86° |
| 2026-04-20 18:12 | 68.74311 | 16.51453 | 6529 ft | 258 kts | 85° |
| 2026-04-20 18:12 | 68.74359 | 16.56331 | 6249 ft | 252 kts | 95° |
| 2026-04-20 18:12 | 68.73793 | 16.60803 | 5847 ft | 248 kts | 129° |
| 2026-04-20 18:13 | 68.72516 | 16.63779 | 5448 ft | 238 kts | 160° |
| 2026-04-20 18:13 | 68.70966 | 16.65066 | 5099 ft | 228 kts | 176° |
| 2026-04-20 18:13 | 68.69418 | 16.65478 | 4777 ft | 221 kts | 183° |
| 2026-04-20 18:13 | 68.67888 | 16.65640 | 4387 ft | 219 kts | 183° |
| 2026-04-20 18:14 | 68.66379 | 16.65804 | 4025 ft | 214 kts | 182° |
| 2026-04-20 18:14 | 68.64934 | 16.65970 | 3779 ft | 204 kts | 182° |
| 2026-04-20 18:14 | 68.63530 | 16.66131 | 3444 ft | 200 kts | 181° |
| 2026-04-20 18:14 | 68.62186 | 16.66289 | 3145 ft | 192 kts | 181° |
| 2026-04-20 18:15 | 68.60887 | 16.66442 | 2810 ft | 179 kts | 182° |
| 2026-04-20 18:15 | 68.59705 | 16.66582 | 2521 ft | 160 kts | 182° |
| 2026-04-20 18:15 | 68.58619 | 16.66708 | 2229 ft | 155 kts | 183° |
| 2026-04-20 18:15 | 68.57558 | 16.66830 | 1982 ft | 151 kts | 183° |
| 2026-04-20 18:16 | 68.56550 | 16.66951 | 1754 ft | 141 kts | 182° |
| 2026-04-20 18:16 | 68.55594 | 16.67064 | 1452 ft | 132 kts | 183° |
| 2026-04-20 18:16 | 68.54708 | 16.67170 | 1254 ft | 126 kts | 182° |
| 2026-04-20 18:16 | 68.53827 | 16.67275 | 1026 ft | 128 kts | 182° |
| 2026-04-20 18:17 | 68.52920 | 16.67367 | 739 ft | 132 kts | 179° |
| 2026-04-20 18:17 | 68.51989 | 16.67468 | 576 ft | 134 kts | 181° |
| 2026-04-20 18:17 | 68.51062 | 16.67637 | 312 ft | 133 kts | 182° |
| 2026-04-20 18:17 | 68.50147 | 16.67731 | 104 ft | 128 kts | 181° |
| 2026-04-20 18:18 | 68.49374 | 16.67790 | 96 ft | 93 kts | 177° |
| 2026-04-20 18:18 | 68.48855 | 16.67857 | 99 ft | 56 kts | 178° |
| 2026-04-20 18:18 | 68.48506 | 16.67895 | 99 ft | 29 kts | 178° |
| 2026-04-20 18:18 | 68.48440 | 16.68130 | 100 ft | 14 kts | 82° |
| 2026-04-20 18:19 | 68.48498 | 16.68267 | 102 ft | 13 kts | 359° |
| 2026-04-20 18:19 | 68.48612 | 16.68252 | 96 ft | 20 kts | 357° |
| 2026-04-20 18:19 | 68.48748 | 16.68230 | 93 ft | 8 kts | 356° |
| 2026-04-20 18:19 | 68.48816 | 16.68219 | 90 ft | 12 kts | 356° |
| 2026-04-20 18:20 | 68.48869 | 16.68210 | 91 ft | 1 kts | 356° |
| 2026-04-20 18:20 | 68.48887 | 16.68215 | 91 ft | 4 kts | 15° |
| 2026-04-20 18:20 | 68.48908 | 16.68265 | 92 ft | 4 kts | 65° |
| 2026-04-20 18:20 | 68.48907 | 16.68336 | 94 ft | 4 kts | 102° |
| 2026-04-20 18:21 | 68.48901 | 16.68403 | 97 ft | 3 kts | 102° |
| 2026-04-20 18:21 | 68.48898 | 16.68446 | 96 ft | 4 kts | 102° |
| 2026-04-20 18:21 | 68.48894 | 16.68511 | 96 ft | 3 kts | 90° |
| 2026-04-20 18:21 | 68.48894 | 16.68577 | 97 ft | 4 kts | 90° |
| 2026-04-20 18:22 | 68.48894 | 16.68724 | 95 ft | 11 kts | 90° |
| 2026-04-20 18:22 | 68.48905 | 16.68828 | 98 ft | 7 kts | 40° |
| 2026-04-20 18:22 | 68.48953 | 16.68845 | 94 ft | 4 kts | 358° |
| 2026-04-20 18:22 | 68.48973 | 16.68844 | 96 ft | 0 kts | 360° |